Time;durP1;ratioP1;P1;durP2;ratioP2;P2;SDS_P1;SDS_P2;PMS_P1;PMS_P2;Temp;Humidity;BMP_temperature;BMP_pressure;BME280_temperature;BME280_humidity;BME280_pressure;Samples;Min_cycle;Max_cycle;Signal;HPM_P1;HPM_P2
2021/10/22 00:00:35;;;;;;;7.22;5.35;;;;;;;12.37;48.83;93992.22;4980389;28;20089;-75
2021/10/22 00:03:01;;;;;;;9.75;5.75;;;;;;;12.38;48.62;93999.13;4982675;28;20399;-75
2021/10/22 00:05:26;;;;;;;9.68;5.55;;;;;;;12.33;48.88;94017.19;4984521;28;20065;-75
2021/10/22 00:07:52;;;;;;;7.40;4.75;;;;;;;12.23;49.20;94001.53;4976394;28;21031;-73
2021/10/22 00:10:17;;;;;;;7.75;4.50;;;;;;;12.24;49.26;94016.41;4984449;28;20413;-74
2021/10/22 00:12:42;;;;;;;7.22;4.82;;;;;;;12.07;49.15;93981.81;4985042;28;20109;-74
2021/10/22 00:15:09;;;;;;;8.10;5.25;;;;;;;12.31;49.38;94003.41;4980782;28;21029;-74
2021/10/22 00:17:37;;;;;;;10.23;4.68;;;;;;;12.36;49.45;94005.88;4980633;28;20349;-74
2021/10/22 00:20:04;;;;;;;6.53;4.65;;;;;;;12.38;49.10;94012.47;4980463;28;20073;-75
2021/10/22 00:22:30;;;;;;;9.27;4.95;;;;;;;12.48;48.73;94008.66;4979586;28;20061;-75
2021/10/22 00:24:56;;;;;;;7.43;4.32;;;;;;;12.43;48.85;94006.94;4988917;28;20037;-74
2021/10/22 00:27:21;;;;;;;6.70;4.25;;;;;;;12.39;48.59;94010.56;4986189;28;20045;-75
2021/10/22 00:29:46;;;;;;;7.00;4.32;;;;;;;12.15;48.62;93986.34;4984923;28;20526;-74
2021/10/22 00:32:12;;;;;;;8.73;4.82;;;;;;;12.40;49.04;94006.81;4979260;28;20088;-74
2021/10/22 00:34:37;;;;;;;9.13;5.18;;;;;;;12.11;49.81;94001.41;4979769;28;20041;-75
2021/10/22 00:37:04;;;;;;;8.40;5.45;;;;;;;11.91;49.80;93973.53;4982667;28;20365;-75
2021/10/22 00:39:30;;;;;;;7.40;5.05;;;;;;;11.84;50.00;93982.00;4990697;28;20080;-75
2021/10/22 00:41:56;;;;;;;10.15;4.78;;;;;;;11.82;50.61;94002.88;4984804;28;20172;-76
2021/10/22 00:44:21;;;;;;;7.13;4.65;;;;;;;11.85;50.02;93990.78;4983042;28;20034;-75
2021/10/22 00:46:47;;;;;;;7.40;4.97;;;;;;;12.01;50.21;93989.19;4986884;28;20471;-75
2021/10/22 00:49:13;;;;;;;7.68;4.38;;;;;;;11.95;49.87;94007.25;4986559;28;20068;-75
2021/10/22 00:51:39;;;;;;;5.65;4.22;;;;;;;11.88;49.90;93998.94;4985005;28;20381;-74
2021/10/22 00:54:06;;;;;;;7.90;5.18;;;;;;;11.90;50.40;93998.63;4977260;28;20021;-74
2021/10/22 00:56:33;;;;;;;8.77;5.70;;;;;;;11.84;50.67;93994.53;4987280;28;20046;-76
2021/10/22 00:58:59;;;;;;;7.97;4.60;;;;;;;11.96;50.28;94000.03;4982503;28;20530;-74
2021/10/22 01:01:25;;;;;;;11.05;5.85;;;;;;;11.88;50.16;93990.94;4984699;28;20611;-75
2021/10/22 01:03:51;;;;;;;13.20;6.30;;;;;;;11.95;50.32;94001.91;4977889;28;20053;-75
2021/10/22 01:06:16;;;;;;;10.57;4.65;;;;;;;11.87;50.01;93999.25;4984580;28;20077;-75
2021/10/22 01:08:43;;;;;;;7.80;5.10;;;;;;;11.87;50.18;93997.38;4982099;28;20079;-76
2021/10/22 01:11:09;;;;;;;8.30;5.55;;;;;;;12.03;50.25;94013.63;4982353;28;20512;-74
2021/10/22 01:13:36;;;;;;;10.52;5.68;;;;;;;11.84;49.65;93979.34;4984973;28;20537;-74
2021/10/22 01:16:02;;;;;;;8.70;5.32;;;;;;;11.94;49.85;94015.53;4986441;28;20531;-74
2021/10/22 01:18:29;;;;;;;6.93;4.43;;;;;;;11.84;49.67;93983.88;4986288;28;20042;-75
2021/10/22 01:20:57;;;;;;;8.75;5.65;;;;;;;11.98;49.81;94019.91;4984063;28;20069;-74
2021/10/22 01:23:24;;;;;;;9.70;5.15;;;;;;;11.79;50.07;94014.16;4979466;28;20042;-75
2021/10/22 01:25:49;;;;;;;7.35;4.53;;;;;;;11.77;50.33;94010.25;4986109;28;20618;-75
2021/10/22 01:28:15;;;;;;;7.68;4.95;;;;;;;11.82;50.61;94016.19;4982397;28;20041;-74
2021/10/22 01:30:41;;;;;;;12.45;6.28;;;;;;;11.63;50.63;94005.09;4982607;28;21176;-74
2021/10/22 01:33:08;;;;;;;8.35;5.50;;;;;;;11.66;51.14;94009.78;4984473;28;20591;-74
2021/10/22 01:35:34;;;;;;;8.73;5.28;;;;;;;11.72;50.82;94005.88;4981035;28;20053;-75
2021/10/22 01:37:59;;;;;;;6.55;5.28;;;;;;;11.67;50.79;94016.69;4974842;28;20448;-74
2021/10/22 01:40:25;;;;;;;8.60;4.63;;;;;;;11.61;50.84;93996.63;4986340;28;20505;-74
2021/10/22 01:42:51;;;;;;;7.80;5.18;;;;;;;11.67;50.93;94015.91;4982519;28;20932;-75
2021/10/22 01:45:17;;;;;;;6.95;4.57;;;;;;;11.57;50.82;94003.69;4983351;28;20031;-75
2021/10/22 01:47:42;;;;;;;11.63;5.00;;;;;;;11.60;50.84;94021.69;4985634;28;20049;-74
2021/10/22 01:50:08;;;;;;;7.10;4.90;;;;;;;11.24;50.87;93970.59;4982038;28;20125;-75
2021/10/22 01:52:33;;;;;;;6.13;3.67;;;;;;;11.63;50.41;94023.75;4982105;28;20117;-74
2021/10/22 01:54:59;;;;;;;6.93;4.50;;;;;;;11.53;50.35;94026.72;4987106;28;20582;-74
2021/10/22 01:57:25;;;;;;;8.77;4.95;;;;;;;11.31;51.71;94016.16;4984074;28;20364;-75
2021/10/22 01:59:51;;;;;;;8.80;5.47;;;;;;;11.21;51.74;94003.16;4981061;28;20053;-73
2021/10/22 02:02:18;;;;;;;7.40;5.10;;;;;;;11.20;51.66;94006.94;4978905;28;20109;-75
2021/10/22 02:04:43;;;;;;;8.65;5.38;;;;;;;11.20;51.69;94020.25;4985226;28;20736;-75
2021/10/22 02:07:09;;;;;;;8.35;4.60;;;;;;;11.09;51.95;94027.75;4985874;28;20129;-75
2021/10/22 02:09:35;;;;;;;7.35;4.93;;;;;;;11.11;52.42;94018.34;4981946;28;20018;-75
2021/10/22 02:12:00;;;;;;;8.85;4.93;;;;;;;11.22;51.96;94020.69;4985299;28;20027;-75
2021/10/22 02:14:26;;;;;;;7.18;3.70;;;;;;;11.16;51.84;94004.09;4983434;28;20081;-75
2021/10/22 02:16:51;;;;;;;8.25;4.38;;;;;;;11.27;51.96;94023.22;4982510;28;20579;-74
2021/10/22 02:19:16;;;;;;;6.30;4.35;;;;;;;11.08;51.70;93994.22;4983207;28;20070;-75
2021/10/22 02:21:42;;;;;;;7.18;4.47;;;;;;;11.35;51.37;94025.09;4979664;28;20038;-77
2021/10/22 02:24:08;;;;;;;8.65;5.28;;;;;;;11.00;52.05;94009.06;4981015;28;20045;-75
2021/10/22 02:26:34;;;;;;;8.13;5.13;;;;;;;11.21;52.04;94027.91;4989294;28;20057;-75
2021/10/22 02:29:00;;;;;;;7.45;4.43;;;;;;;10.91;52.00;93986.97;4985737;28;20038;-76
2021/10/22 02:31:25;;;;;;;8.15;4.72;;;;;;;11.17;51.40;94025.06;4990607;28;20708;-75
2021/10/22 02:33:51;;;;;;;5.90;4.18;;;;;;;11.24;51.34;94034.50;4987299;28;20587;-75
2021/10/22 02:36:17;;;;;;;13.43;7.60;;;;;;;11.06;51.35;94029.13;4984939;28;20034;-75
2021/10/22 02:38:44;;;;;;;11.60;6.38;;;;;;;11.10;51.57;94045.28;4986404;28;20042;-74
2021/10/22 02:41:12;;;;;;;7.60;4.90;;;;;;;11.06;51.71;94050.41;4984511;28;20045;-75
2021/10/22 02:43:37;;;;;;;8.88;5.00;;;;;;;11.06;52.26;94058.41;4989412;28;20034;-75
2021/10/22 02:46:03;;;;;;;6.68;4.63;;;;;;;10.98;51.88;94053.84;4988049;28;20107;-75
2021/10/22 02:48:28;;;;;;;8.70;5.72;;;;;;;10.70;52.52;94039.22;4993709;28;20041;-75
2021/10/22 02:50:54;;;;;;;11.32;5.55;;;;;;;10.67;52.97;94039.81;4986856;28;20305;-74
2021/10/22 02:53:20;;;;;;;10.02;5.38;;;;;;;10.66;52.96;94043.59;4985688;28;20131;-75
2021/10/22 02:55:45;;;;;;;9.07;5.70;;;;;;;10.80;53.14;94060.22;4986408;28;20046;-75
2021/10/22 02:58:11;;;;;;;8.00;5.13;;;;;;;10.54;53.82;94043.38;4981115;28;20451;-75
2021/10/22 03:00:36;;;;;;;7.82;5.35;;;;;;;10.76;52.80;94061.91;4987688;28;20025;-76
2021/10/22 03:03:02;;;;;;;7.40;4.55;;;;;;;10.41;53.20;94007.81;4978706;28;20029;-76
2021/10/22 03:05:30;;;;;;;7.97;4.63;;;;;;;10.86;52.77;94061.63;4987481;28;20038;-75
2021/10/22 03:07:56;;;;;;;6.15;4.30;;;;;;;10.89;52.73;94069.00;4966097;28;20061;-75
2021/10/22 03:10:21;;;;;;;6.47;4.18;;;;;;;10.97;52.61;94084.22;4974206;28;20496;-74
2021/10/22 03:12:47;;;;;;;11.55;5.10;;;;;;;10.75;52.61;94063.00;4979767;28;20528;-75
2021/10/22 03:15:12;;;;;;;7.97;4.97;;;;;;;10.49;52.89;94024.88;4986687;28;20030;-75
2021/10/22 03:17:38;;;;;;;6.80;4.28;;;;;;;10.93;52.60;94083.25;4984061;28;20044;-75
2021/10/22 03:20:04;;;;;;;9.27;5.13;;;;;;;10.73;53.29;94076.63;4978372;28;21361;-75
2021/10/22 03:22:29;;;;;;;8.68;4.47;;;;;;;10.82;52.93;94070.53;4986668;28;20675;-76
2021/10/22 03:24:54;;;;;;;7.70;4.80;;;;;;;10.76;53.26;94072.53;4982225;28;20027;-75
2021/10/22 03:27:22;;;;;;;15.10;6.72;;;;;;;10.90;52.58;94078.56;4987695;28;20042;-75
2021/10/22 03:29:47;;;;;;;9.20;5.90;;;;;;;10.95;52.58;94083.75;4983865;28;20714;-75
2021/10/22 03:32:13;;;;;;;9.50;5.30;;;;;;;10.72;52.64;94050.31;4981458;28;20567;-75
2021/10/22 03:34:38;;;;;;;6.80;4.22;;;;;;;10.90;52.47;94067.94;4977059;28;20070;-74
2021/10/22 03:37:04;;;;;;;7.28;4.28;;;;;;;10.83;52.86;94075.56;4985680;28;20038;-74
2021/10/22 03:39:29;;;;;;;6.13;3.33;;;;;;;10.93;52.26;94075.28;4982697;28;20284;-75
2021/10/22 03:41:55;;;;;;;4.82;3.65;;;;;;;10.90;52.24;94078.56;4980186;28;20038;-75
2021/10/22 03:44:20;;;;;;;9.60;4.38;;;;;;;10.52;52.52;94018.94;4986254;28;20066;-75
2021/10/22 03:46:47;;;;;;;5.50;3.35;;;;;;;11.00;51.73;94078.25;4979734;28;20053;-74
2021/10/22 03:49:12;;;;;;;5.30;3.65;;;;;;;10.87;52.01;94076.50;4982017;28;20088;-74
2021/10/22 03:51:38;;;;;;;4.70;3.33;;;;;;;10.86;52.33;94082.91;4982747;28;20515;-74
2021/10/22 03:54:03;;;;;;;6.90;4.60;;;;;;;10.97;51.60;94083.41;4981892;28;20022;-74
2021/10/22 03:56:29;;;;;;;10.77;4.95;;;;;;;10.78;52.34;94089.00;4984610;28;20053;-74
2021/10/22 03:58:54;;;;;;;7.18;4.85;;;;;;;10.88;52.25;94088.72;4984455;28;20042;-74
2021/10/22 04:01:20;;;;;;;9.38;4.75;;;;;;;10.88;52.27;94090.59;4989642;28;20515;-75
2021/10/22 04:03:45;;;;;;;7.13;5.10;;;;;;;10.76;52.30;94080.53;4987880;28;20034;-74
2021/10/22 04:06:11;;;;;;;6.15;4.78;;;;;;;10.69;52.25;94082.84;4983736;28;20037;-74
2021/10/22 04:08:37;;;;;;;6.82;4.07;;;;;;;10.65;52.41;94072.06;4983842;28;20571;-73
2021/10/22 04:11:03;;;;;;;5.75;3.70;;;;;;;10.65;52.36;94073.94;4980207;28;20030;-74
2021/10/22 04:13:29;;;;;;;7.15;4.45;;;;;;;10.82;52.19;94086.50;4983919;28;20073;-75
2021/10/22 04:15:55;;;;;;;7.25;4.55;;;;;;;10.70;52.44;94066.59;4980889;28;20061;-74
2021/10/22 04:18:20;;;;;;;4.78;3.80;;;;;;;10.65;52.45;94060.63;4982712;28;20029;-73
2021/10/22 04:20:47;;;;;;;7.45;4.32;;;;;;;10.67;52.72;94069.84;4981704;28;20053;-75
2021/10/22 04:23:13;;;;;;;6.47;4.65;;;;;;;10.85;52.16;94083.25;4983970;28;20042;-75
2021/10/22 04:25:38;;;;;;;8.80;4.43;;;;;;;10.53;52.58;94063.06;4982032;28;20069;-75
2021/10/22 04:28:08;;;;;;;10.38;5.03;;;;;;;10.39;53.04;94062.38;4988078;28;20519;-74
2021/10/22 04:30:34;;;;;;;10.80;6.32;;;;;;;10.45;53.60;94083.22;4979617;28;20034;-74
2021/10/22 04:33:04;;;;;;;7.78;5.18;;;;;;;10.33;54.12;94078.41;4987665;28;20527;-75
2021/10/22 04:35:32;;;;;;;7.55;4.65;;;;;;;10.20;54.04;94054.59;4983427;28;20038;-75
2021/10/22 04:40:32;;;;;;;7.88;4.57;;;;;;;10.41;54.02;94066.31;4984444;28;20046;-73
2021/10/22 04:43:06;;;;;;;8.38;4.43;;;;;;;10.42;53.47;94051.13;4984639;28;20038;-74
2021/10/22 04:45:34;;;;;;;6.93;4.00;;;;;;;10.48;53.25;94055.22;4983912;28;20377;-74
2021/10/22 04:48:01;;;;;;;6.03;4.20;;;;;;;10.58;52.83;94063.72;4986596;28;20630;-74
2021/10/22 04:50:27;;;;;;;6.90;4.68;;;;;;;10.59;53.30;94072.47;4986481;28;20037;-74
2021/10/22 04:52:54;;;;;;;7.32;4.55;;;;;;;10.66;53.25;94080.81;4981497;28;20069;-74
2021/10/22 04:55:24;;;;;;;7.28;5.47;;;;;;;10.71;53.28;94078.00;4982632;28;20412;-74
2021/10/22 04:57:51;;;;;;;10.07;6.47;;;;;;;10.62;53.35;94069.19;4982281;28;20265;-75
2021/10/22 05:00:17;;;;;;;9.15;5.90;;;;;;;10.74;53.41;94083.50;4984395;28;20099;-75
2021/10/22 05:02:44;;;;;;;12.35;6.60;;;;;;;10.61;53.66;94065.75;4982829;28;20505;-75
2021/10/22 05:05:10;;;;;;;14.30;9.15;;;;;;;10.65;53.67;94082.69;4985918;28;20045;-75
2021/10/22 05:07:36;;;;;;;12.90;7.38;;;;;;;10.53;53.96;94055.09;4982119;28;20041;-75
2021/10/22 05:10:02;;;;;;;35.85;14.55;;;;;;;10.63;53.50;94065.47;4986117;28;20042;-75
2021/10/22 05:12:27;;;;;;;30.05;12.82;;;;;;;10.64;53.51;94053.72;4989059;28;20602;-75
2021/10/22 05:14:52;;;;;;;30.98;15.00;;;;;;;10.71;53.61;94064.69;4984501;28;20041;-74
2021/10/22 05:17:18;;;;;;;15.77;9.13;;;;;;;10.68;53.48;94075.97;4986042;28;20042;-75
2021/10/22 05:19:44;;;;;;;14.07;6.93;;;;;;;10.81;53.78;94091.03;4984060;28;20523;-74
2021/10/22 05:22:09;;;;;;;8.23;5.20;;;;;;;10.86;53.09;94090.09;4985107;28;20038;-75
2021/10/22 05:24:35;;;;;;;8.38;5.03;;;;;;;10.84;53.48;94097.63;4984187;28;20029;-74
2021/10/22 05:27:01;;;;;;;6.78;4.35;;;;;;;10.95;53.06;94091.72;4984220;28;20404;-74
2021/10/22 05:29:26;;;;;;;9.98;5.05;;;;;;;11.06;53.16;94108.97;4987035;28;20497;-76
2021/10/22 05:31:52;;;;;;;6.07;4.18;;;;;;;11.09;52.77;94102.25;4981776;28;20361;-74
2021/10/22 05:34:20;;;;;;;6.75;5.10;;;;;;;11.08;53.13;94109.47;4983252;28;20038;-74
2021/10/22 05:36:46;;;;;;;9.18;5.30;;;;;;;10.92;53.13;94089.66;4982748;28;20544;-75
2021/10/22 05:39:14;;;;;;;9.43;5.40;;;;;;;11.04;53.24;94115.72;4983181;28;20034;-75
2021/10/22 05:41:40;;;;;;;10.10;4.82;;;;;;;10.90;53.63;94099.84;4982428;28;20085;-74
2021/10/22 05:44:06;;;;;;;8.90;6.20;;;;;;;11.16;53.69;94130.00;4987715;28;20352;-75
2021/10/22 05:46:32;;;;;;;11.60;6.93;;;;;;;11.21;53.68;94131.72;4975015;28;20046;-75
2021/10/22 05:48:58;;;;;;;9.35;6.70;;;;;;;11.22;53.52;94146.59;4986555;28;20034;-75
2021/10/22 05:51:23;;;;;;;11.02;7.43;;;;;;;11.38;53.13;94152.31;4986008;28;20037;-75
2021/10/22 05:53:51;;;;;;;11.98;7.30;;;;;;;11.43;53.19;94157.50;4978881;28;20046;-74
2021/10/22 05:56:17;;;;;;;13.63;9.07;;;;;;;11.52;52.89;94163.66;4985116;28;20045;-74
2021/10/22 05:58:43;;;;;;;16.60;8.95;;;;;;;11.57;53.07;94171.50;4992848;28;20042;-74
2021/10/22 06:01:08;;;;;;;16.98;10.90;;;;;;;11.61;52.74;94161.78;4991371;28;20517;-75
2021/10/22 06:03:34;;;;;;;18.20;10.65;;;;;;;11.65;52.10;94151.28;4977193;28;20069;-75
2021/10/22 06:05:59;;;;;;;20.52;10.63;;;;;;;11.74;52.01;94160.06;4992960;28;20044;-75
2021/10/22 06:08:25;;;;;;;17.65;10.60;;;;;;;11.73;51.68;94143.31;4987036;28;20633;-75
2021/10/22 06:10:50;;;;;;;16.15;10.68;;;;;;;11.68;51.86;94145.34;4987693;28;20045;-75
2021/10/22 06:13:17;;;;;;;18.40;10.18;;;;;;;11.85;52.09;94161.34;4981503;28;20046;-75
2021/10/22 06:15:43;;;;;;;20.25;11.10;;;;;;;11.75;52.13;94151.78;4986685;28;20030;-75
2021/10/22 06:18:09;;;;;;;22.00;10.65;;;;;;;11.78;52.37;94155.72;4989045;28;20026;-75
2021/10/22 06:20:51;;;;;;;16.02;10.80;;;;;;;11.74;52.28;94155.53;4986199;28;20049;-75
2021/10/22 06:26:00;;;;;;;18.58;10.68;;;;;;;12.08;51.87;94180.66;4987726;28;20072;-76
2021/10/22 06:28:26;;;;;;;20.73;11.82;;;;;;;12.12;51.97;94171.72;4984534;28;20042;-75
2021/10/22 06:30:51;;;;;;;18.98;11.32;;;;;;;12.21;51.83;94182.38;4986817;28;20125;-75
2021/10/22 06:33:17;;;;;;;17.13;11.13;;;;;;;12.17;51.53;94157.47;4993915;28;20133;-75
2021/10/22 06:35:44;;;;;;;16.45;10.95;;;;;;;12.35;51.43;94181.13;4985421;28;20039;-75
2021/10/22 06:38:10;;;;;;;21.80;11.55;;;;;;;12.34;51.51;94179.56;4982721;28;20034;-75
2021/10/22 06:40:35;;;;;;;17.85;11.35;;;;;;;12.44;51.59;94194.47;4988115;28;20054;-75
2021/10/22 06:43:01;;;;;;;19.60;12.27;;;;;;;12.42;51.19;94185.97;4988718;28;21225;-75
2021/10/22 06:45:26;;;;;;;17.40;11.23;;;;;;;12.01;52.34;94149.94;4985143;28;20049;-75
2021/10/22 06:47:52;;;;;;;21.90;12.63;;;;;;;12.56;51.09;94199.97;4987061;28;20625;-75
2021/10/22 06:50:17;;;;;;;20.00;12.57;;;;;;;12.64;51.35;94204.53;4987365;28;20677;-75
2021/10/22 06:52:43;;;;;;;19.17;11.32;;;;;;;12.47;51.29;94183.94;4985034;28;20087;-75
2021/10/22 06:55:09;;;;;;;17.42;11.45;;;;;;;12.53;51.35;94181.88;4989697;28;20037;-75
2021/10/22 06:57:40;;;;;;;21.65;14.18;;;;;;;12.79;50.61;94190.69;4987398;28;20034;-76
2021/10/22 07:00:06;;;;;;;19.13;11.80;;;;;;;12.96;50.33;94205.09;4988712;28;20117;-75
2021/10/22 07:02:36;;;;;;;18.42;11.60;;;;;;;13.01;50.60;94207.56;4984166;28;20046;-75
2021/10/22 07:05:11;;;;;;;19.58;10.88;;;;;;;12.80;50.21;94202.94;5001548;28;20030;-75
2021/10/22 07:07:36;;;;;;;18.73;11.02;;;;;;;12.97;49.93;94198.63;4985217;28;20048;-75
2021/10/22 07:10:03;;;;;;;17.38;11.40;;;;;;;12.83;50.46;94223.66;4985619;28;20039;-75
2021/10/22 07:12:29;;;;;;;18.33;11.43;;;;;;;12.38;51.39;94191.16;4981358;28;20120;-75
2021/10/22 07:14:57;;;;;;;19.80;11.90;;;;;;;12.47;51.25;94215.16;4985462;28;20038;-76
2021/10/22 07:17:22;;;;;;;26.80;12.15;;;;;;;12.82;50.35;94214.06;4981896;28;20034;-75
2021/10/22 07:19:48;;;;;;;17.08;10.90;;;;;;;13.05;50.22;94221.88;4985746;28;20092;-75
2021/10/22 07:22:15;;;;;;;20.50;10.07;;;;;;;13.02;50.06;94198.47;4988188;28;20037;-74
2021/10/22 07:24:40;;;;;;;13.75;10.00;;;;;;;13.15;49.78;94211.63;4982871;28;20576;-73
2021/10/22 07:27:07;;;;;;;20.85;12.52;;;;;;;12.85;50.69;94208.09;4987221;28;20048;-75
2021/10/22 07:29:33;;;;;;;17.15;12.07;;;;;;;13.06;50.70;94205.53;4983317;28;20077;-75
2021/10/22 07:31:59;;;;;;;16.88;11.50;;;;;;;13.38;50.22;94214.84;4985624;28;20049;-74
2021/10/22 07:34:26;;;;;;;17.80;11.90;;;;;;;13.50;49.95;94209.59;4987622;28;20069;-75
2021/10/22 07:36:52;;;;;;;18.73;11.00;;;;;;;13.35;49.89;94202.13;4991409;28;21357;-75
2021/10/22 07:39:19;;;;;;;17.73;9.98;;;;;;;13.57;49.38;94209.91;4987337;28;20411;-75
2021/10/22 07:41:45;;;;;;;16.10;9.35;;;;;;;13.52;49.49;94212.75;4986672;28;20479;-74
2021/10/22 07:44:11;;;;;;;15.40;9.63;;;;;;;13.66;49.18;94186.63;4982999;28;20050;-76
2021/10/22 07:46:38;;;;;;;14.88;9.45;;;;;;;13.70;48.99;94208.91;4986833;28;20069;-75
2021/10/22 07:49:03;;;;;;;17.60;10.05;;;;;;;13.74;49.03;94215.16;4989099;28;20038;-76
2021/10/22 07:51:29;;;;;;;15.15;8.57;;;;;;;13.66;49.05;94205.31;4987191;28;20459;-75
2021/10/22 07:53:54;;;;;;;14.68;8.57;;;;;;;13.54;49.61;94221.25;4985116;28;20188;-75
2021/10/22 07:56:20;;;;;;;16.67;9.13;;;;;;;13.43;49.58;94212.00;4985137;28;20409;-75
2021/10/22 07:58:49;;;;;;;14.85;9.05;;;;;;;13.73;49.13;94202.94;4990060;28;20038;-75
2021/10/22 08:01:14;;;;;;;12.93;8.70;;;;;;;13.88;48.67;94193.56;4986262;28;20065;-75
2021/10/22 08:03:40;;;;;;;12.43;8.05;;;;;;;14.11;48.24;94213.56;4983436;28;20152;-74
2021/10/22 08:06:09;;;;;;;14.35;8.52;;;;;;;14.16;48.11;94210.69;4988170;28;20516;-75
2021/10/22 08:08:35;;;;;;;18.25;10.30;;;;;;;13.91;47.16;94150.13;4987005;28;20135;-74
2021/10/22 08:11:00;;;;;;;18.35;8.90;;;;;;;14.21;47.71;94200.91;4985717;28;20030;-74
2021/10/22 08:13:26;;;;;;;14.45;9.02;;;;;;;14.22;47.43;94224.66;4985818;28;20050;-75
2021/10/22 08:15:51;;;;;;;15.00;9.65;;;;;;;14.19;48.40;94236.78;4986357;28;20042;-75
2021/10/22 08:18:17;;;;;;;15.95;9.20;;;;;;;14.16;48.67;94221.38;4986361;28;20658;-75
2021/10/22 08:20:50;;;;;;;14.07;8.95;;;;;;;13.98;48.32;94227.19;4986327;28;20591;-76
2021/10/22 08:23:17;;;;;;;11.95;8.45;;;;;;;14.25;48.36;94213.28;4984058;28;20071;-76
2021/10/22 08:25:42;;;;;;;14.90;9.02;;;;;;;14.22;48.59;94207.81;4984617;28;20752;-75
2021/10/22 08:28:08;;;;;;;11.95;8.80;;;;;;;14.37;47.93;94217.94;4991044;28;20133;-76
2021/10/22 08:30:33;;;;;;;14.63;8.43;;;;;;;14.47;47.95;94220.22;4985144;28;20373;-76
2021/10/22 08:32:59;;;;;;;13.90;8.10;;;;;;;14.64;47.54;94230.00;4989612;28;20109;-76
2021/10/22 08:35:27;;;;;;;12.68;8.05;;;;;;;14.51;47.40;94216.56;4984990;28;20735;-75
2021/10/22 08:38:01;;;;;;;14.80;7.55;;;;;;;14.63;47.03;94228.44;4982060;28;20046;-75
2021/10/22 08:40:27;;;;;;;11.90;7.68;;;;;;;14.70;47.56;94207.28;4982217;28;20543;-75
2021/10/22 08:42:53;;;;;;;14.45;7.85;;;;;;;14.84;47.13;94218.50;4984024;28;20697;-76
2021/10/22 08:45:19;;;;;;;16.10;8.93;;;;;;;14.79;46.96;94226.75;4984678;28;20034;-75
2021/10/22 08:47:45;;;;;;;13.38;8.75;;;;;;;14.80;46.77;94217.59;4981800;28;20042;-75
2021/10/22 08:50:16;;;;;;;15.02;9.20;;;;;;;14.99;46.77;94225.91;4987026;28;20049;-76
2021/10/22 08:52:44;;;;;;;15.90;10.00;;;;;;;14.91;46.16;94198.09;4984150;28;20428;-75
2021/10/22 08:55:12;;;;;;;15.90;9.68;;;;;;;15.05;46.96;94208.53;4982568;28;20054;-75
2021/10/22 08:57:42;;;;;;;14.60;9.07;;;;;;;15.19;46.95;94218.94;4988012;28;20030;-75
2021/10/22 09:00:09;;;;;;;13.73;8.60;;;;;;;15.33;45.90;94219.41;4980053;28;20032;-74
2021/10/22 09:02:34;;;;;;;17.08;9.27;;;;;;;15.27;45.80;94226.88;4984690;28;20504;-75
2021/10/22 09:05:14;;;;;;;14.75;10.32;;;;;;;15.20;46.07;94218.63;4974488;28;20052;-76
2021/10/22 09:07:41;;;;;;;17.00;9.63;;;;;;;15.26;46.05;94219.94;4975735;28;20489;-75
2021/10/22 09:10:18;;;;;;;15.15;9.98;;;;;;;15.17;46.51;94221.16;4970936;28;21111;-74
2021/10/22 09:12:46;;;;;;;15.65;10.07;;;;;;;15.39;46.19;94224.22;4981163;28;20045;-75
2021/10/22 09:15:14;;;;;;;15.10;9.60;;;;;;;15.48;45.95;94216.13;4980974;28;20068;-74
2021/10/22 09:17:41;;;;;;;17.63;10.65;;;;;;;15.48;46.38;94193.88;4981851;28;20049;-76
2021/10/22 09:20:12;;;;;;;18.77;9.77;;;;;;;15.47;46.75;94219.91;4981564;28;20064;-74
2021/10/22 09:22:38;;;;;;;15.85;9.50;;;;;;;15.37;46.21;94194.28;4974596;28;20138;-76
2021/10/22 09:25:11;;;;;;;15.80;9.57;;;;;;;15.57;46.18;94202.59;4979782;28;20564;-76
2021/10/22 09:27:41;;;;;;;16.60;11.02;;;;;;;15.72;46.26;94199.25;4979227;28;20030;-76
2021/10/22 09:30:25;;;;;;;15.77;9.68;;;;;;;15.89;45.74;94202.47;4981962;28;20038;-74
2021/10/22 09:32:56;;;;;;;15.13;10.27;;;;;;;15.78;45.93;94203.28;4983574;28;20049;-76
2021/10/22 09:35:35;;;;;;;15.18;10.23;;;;;;;15.83;45.58;94205.75;4979367;28;20040;-75
2021/10/22 09:38:19;;;;;;;15.73;11.20;;;;;;;15.94;45.01;94198.03;4979178;28;20293;-75
2021/10/22 09:41:07;;;;;;;15.77;10.80;;;;;;;16.03;45.44;94199.47;4986644;28;20042;-76
2021/10/22 09:43:39;;;;;;;16.30;10.48;;;;;;;15.91;45.25;94180.69;4976016;28;20045;-74
2021/10/22 09:46:18;;;;;;;15.43;9.93;;;;;;;16.22;45.05;94186.25;4983814;28;20100;-76
2021/10/22 09:48:46;;;;;;;16.80;10.05;;;;;;;16.37;44.55;94192.03;4990936;28;20092;-75
2021/10/22 09:51:33;;;;;;;16.75;10.30;;;;;;;16.44;44.87;94194.91;4982896;28;20062;-75
2021/10/22 09:54:09;;;;;;;16.42;10.25;;;;;;;16.27;45.74;94187.91;4979907;28;20100;-75
2021/10/22 09:56:41;;;;;;;16.15;10.48;;;;;;;16.23;44.90;94193.16;4980214;28;20044;-75
2021/10/22 09:59:18;;;;;;;20.45;10.60;;;;;;;16.38;44.39;94188.25;4972500;28;20130;-75
2021/10/22 10:01:44;;;;;;;17.77;11.15;;;;;;;16.19;44.91;94176.16;4971786;28;20081;-75
2021/10/22 10:04:12;;;;;;;17.67;10.60;;;;;;;16.33;44.23;94187.34;4967631;28;21052;-75
2021/10/22 10:06:43;;;;;;;16.23;10.07;;;;;;;16.18;44.12;94182.66;4964668;28;20256;-75
2021/10/22 10:09:10;;;;;;;14.68;10.43;;;;;;;16.23;44.48;94179.72;4970788;28;20057;-75
2021/10/22 10:11:40;;;;;;;16.70;11.20;;;;;;;16.45;44.20;94177.69;4979732;28;20386;-75
2021/10/22 10:14:07;;;;;;;16.00;10.48;;;;;;;16.34;45.12;94163.97;4977447;28;20603;-75
2021/10/22 10:16:34;;;;;;;20.23;11.05;;;;;;;16.35;45.35;94156.69;4981532;28;20451;-74
2021/10/22 10:19:29;;;;;;;17.05;10.65;;;;;;;16.43;45.03;94169.22;4972681;28;20045;-74
2021/10/22 10:21:59;;;;;;;14.77;10.00;;;;;;;16.50;44.79;94169.41;4980796;28;20045;-75
2021/10/22 10:24:34;;;;;;;15.40;11.18;;;;;;;16.62;45.07;94172.06;4976732;28;20555;-74
2021/10/22 10:27:02;;;;;;;20.27;11.35;;;;;;;16.63;45.18;94160.16;4988018;28;20046;-75
2021/10/22 10:29:40;;;;;;;16.05;10.45;;;;;;;16.35;44.68;94114.53;4979916;28;20034;-75
2021/10/22 10:32:12;;;;;;;18.30;10.55;;;;;;;16.71;44.81;94157.34;4987302;28;20076;-74
2021/10/22 10:34:40;;;;;;;17.00;10.95;;;;;;;16.78;44.58;94156.75;4980606;28;20059;-74
2021/10/22 10:37:31;;;;;;;13.90;9.93;;;;;;;17.04;44.82;94162.44;4980276;28;20360;-74
2021/10/22 10:40:01;;;;;;;19.55;9.55;;;;;;;17.14;44.36;94150.41;4978337;28;20064;-74
2021/10/22 10:42:38;;;;;;;19.33;11.05;;;;;;;17.19;43.62;94160.91;4981214;28;20042;-75
2021/10/22 10:45:25;;;;;;;17.80;9.10;;;;;;;17.18;44.09;94162.81;4986021;28;20050;-75
2021/10/22 10:47:54;;;;;;;20.10;11.73;;;;;;;17.01;44.00;94152.34;4983439;28;20489;-74
2021/10/22 10:50:48;;;;;;;15.60;10.60;;;;;;;17.08;45.86;94147.16;4987074;28;20442;-74
2021/10/22 10:53:28;;;;;;;16.75;10.25;;;;;;;17.37;44.95;94143.31;4984826;28;20042;-75
2021/10/22 10:55:55;;;;;;;15.35;9.35;;;;;;;17.38;45.26;94128.75;4984541;28;20048;-74
2021/10/22 10:58:22;;;;;;;16.60;9.68;;;;;;;17.15;44.62;94072.16;4981829;28;20080;-75
2021/10/22 11:00:50;;;;;;;15.52;10.13;;;;;;;17.53;43.32;94130.63;4986434;28;20026;-74
2021/10/22 11:03:43;;;;;;;17.00;10.25;;;;;;;17.33;43.39;94109.41;4988455;28;20041;-75
2021/10/22 11:06:10;;;;;;;16.58;11.90;;;;;;;17.49;43.46;94118.25;4988562;28;20103;-75
2021/10/22 11:08:41;;;;;;;17.45;9.85;;;;;;;17.73;44.42;94112.66;4987212;28;20475;-75
2021/10/22 11:11:28;;;;;;;18.83;10.15;;;;;;;17.68;43.71;94094.09;4986768;28;20045;-74
2021/10/22 11:14:07;;;;;;;13.93;8.82;;;;;;;17.49;43.47;94107.50;4985117;28;20054;-74
2021/10/22 11:16:43;;;;;;;14.73;9.73;;;;;;;17.70;43.57;94101.81;4984700;28;20073;-74
2021/10/22 11:19:08;;;;;;;15.82;9.00;;;;;;;17.80;43.64;94101.25;4985252;28;20444;-74
2021/10/22 11:21:48;;;;;;;15.15;9.88;;;;;;;17.77;43.52;94075.84;4982161;28;20375;-75
2021/10/22 11:24:15;;;;;;;15.07;9.70;;;;;;;17.88;43.38;94093.00;4988774;28;20053;-75
2021/10/22 11:26:41;;;;;;;14.77;9.48;;;;;;;18.08;44.69;94093.06;4986755;28;20297;-73
2021/10/22 11:29:16;;;;;;;13.00;8.57;;;;;;;18.14;42.82;94080.88;4985408;28;20325;-73
2021/10/22 11:31:43;;;;;;;14.02;9.13;;;;;;;18.15;42.24;94079.72;4984279;28;20412;-75
2021/10/22 11:34:24;;;;;;;15.15;8.40;;;;;;;18.28;42.53;94094.63;4987027;28;20046;-74